Time;durP1;ratioP1;P1;durP2;ratioP2;P2;SDS_P1;SDS_P2;PMS_P1;PMS_P2;Temp;Humidity;BMP_temperature;BMP_pressure;BME280_temperature;BME280_humidity;BME280_pressure;Samples;Min_cycle;Max_cycle;Signal;HPM_P1;HPM_P2
2022/01/31 00:01:53;;;;;;;;;25.50;23.50;;;;;5.76;54.27;101010.78;146605;585;46008;-70
2022/01/31 00:04:46;;;;;;;;;26.50;25.25;;;;;5.77;54.49;101007.44;146599;563;47010;-70
2022/01/31 00:07:38;;;;;;;;;23.75;20.50;;;;;5.75;55.29;101003.84;146606;579;46008;-70
2022/01/31 00:10:31;;;;;;;;;35.75;31.25;;;;;5.61;54.48;101018.25;146601;593;46010;-70
2022/01/31 00:13:33;;;;;;;;;28.75;27.00;;;;;5.55;55.03;101007.50;146606;581;46021;-71
2022/01/31 00:16:31;;;;;;;;;42.00;35.25;;;;;5.54;56.26;101019.47;146601;572;46016;-70
2022/01/31 00:19:23;;;;;;;;;33.00;24.50;;;;;5.45;56.79;101031.62;146606;611;46020;-69
2022/01/31 00:22:17;;;;;;;;;32.00;31.00;;;;;5.42;55.11;101031.41;146603;634;46031;-70
2022/01/31 00:25:10;;;;;;;;;27.00;26.00;;;;;5.54;54.57;101034.00;146604;570;47012;-70
2022/01/31 00:28:02;;;;;;;;;35.50;31.25;;;;;5.63;55.77;101039.84;146601;576;47012;-70
2022/01/31 00:30:54;;;;;;;;;33.25;29.00;;;;;5.67;54.67;101030.66;146606;586;46021;-70
2022/01/31 00:33:47;;;;;;;;;30.75;26.50;;;;;5.73;55.00;101031.13;146604;572;46917;-70
2022/01/31 00:36:39;;;;;;;;;35.50;29.00;;;;;5.78;54.56;101042.69;146604;604;46021;-70
2022/01/31 00:39:34;;;;;;;;;35.00;29.25;;;;;5.79;54.72;101023.87;146600;595;46016;-70
2022/01/31 00:42:28;;;;;;;;;37.75;32.25;;;;;5.81;54.64;101024.91;146604;569;46020;-71
2022/01/31 00:45:26;;;;;;;;;37.00;31.50;;;;;5.82;53.62;101024.09;146599;630;46032;-70
2022/01/31 00:48:24;;;;;;;;;34.75;30.25;;;;;5.84;54.25;101019.09;146606;575;46008;-70
2022/01/31 00:51:16;;;;;;;;;37.50;31.00;;;;;5.86;54.87;101026.13;146603;596;47010;-70
2022/01/31 00:54:09;;;;;;;;;30.75;25.00;;;;;5.79;56.99;101027.37;146604;573;47008;-70
2022/01/31 00:57:01;;;;;;;;;23.25;22.50;;;;;5.66;57.86;101021.16;146602;626;47010;-70
2022/01/31 00:59:54;;;;;;;;;27.25;21.50;;;;;5.59;56.66;101006.06;146601;715;46021;-71
2022/01/31 01:02:46;;;;;;;;;25.50;23.75;;;;;5.61;55.64;101010.53;146600;671;46016;-70
2022/01/31 01:05:39;;;;;;;;;27.00;24.50;;;;;5.66;57.22;101016.91;146604;580;46020;-71
2022/01/31 01:08:31;;;;;;;;;28.25;21.25;;;;;5.68;57.00;101014.47;146601;685;46016;-76
2022/01/31 01:11:22;;;;;;;;;23.50;22.50;;;;;5.64;55.73;101008.19;146604;611;46020;-76
2022/01/31 01:14:15;;;;;;;;;27.00;19.50;;;;;5.64;55.43;101003.06;146599;573;47012;-77
2022/01/31 01:17:07;;;;;;;;;21.00;19.50;;;;;5.70;55.28;100997.44;146601;587;47008;-78
2022/01/31 01:19:59;;;;;;;;;22.75;19.75;;;;;5.75;56.75;100988.41;146600;600;46016;-77
2022/01/31 01:22:51;;;;;;;;;26.75;23.75;;;;;5.82;54.20;100998.38;146606;630;45051;-76
2022/01/31 01:25:43;;;;;;;;;24.00;22.50;;;;;5.99;53.14;100985.13;146602;646;47917;-76
2022/01/31 01:28:36;;;;;;;;;30.25;25.00;;;;;6.16;52.99;100981.19;146602;611;46021;-76
2022/01/31 01:31:28;;;;;;;;;24.00;21.50;;;;;6.29;52.15;100987.22;146600;588;47010;-78
2022/01/31 01:34:22;;;;;;;;;24.50;21.25;;;;;6.33;53.18;100985.00;146600;650;46020;-78
2022/01/31 01:37:14;;;;;;;;;17.50;17.00;;;;;6.29;52.02;100987.22;146602;565;46016;-79
2022/01/31 01:40:07;;;;;;;;;22.75;18.75;;;;;6.29;52.05;100980.38;146605;597;46020;-75
2022/01/31 01:42:59;;;;;;;;;18.75;16.75;;;;;6.38;52.09;100990.47;146603;637;46010;-75
2022/01/31 01:45:55;;;;;;;;;14.75;14.00;;;;;6.50;52.35;100986.19;146602;604;46008;-75
2022/01/31 01:48:48;;;;;;;;;22.00;17.50;;;;;6.55;55.17;101004.56;146597;600;46917;-75
2022/01/31 01:51:42;;;;;;;;;28.50;23.75;;;;;6.47;58.05;100998.84;146601;579;46020;-75
2022/01/31 01:54:34;;;;;;;;;19.50;18.25;;;;;6.41;57.69;101003.56;146598;624;46030;-76
2022/01/31 01:57:28;;;;;;;;;20.75;18.25;;;;;6.46;57.63;101004.81;146603;564;46008;-74
2022/01/31 02:00:25;;;;;;;;;20.75;18.00;;;;;6.60;57.36;101001.50;146597;634;46010;-75
2022/01/31 02:03:17;;;;;;;;;23.00;20.75;;;;;6.81;54.95;101014.16;146599;563;46008;-76
2022/01/31 02:06:11;;;;;;;;;24.00;20.00;;;;;6.92;53.85;101006.37;146597;564;46017;-75
2022/01/31 02:09:05;;;;;;;;;27.50;22.25;;;;;4.80;52.39;100611.25;146604;566;46020;-75
2022/01/31 02:11:57;;;;;;;;;22.00;20.25;;;;;7.11;52.06;101007.69;146596;595;46016;-74
2022/01/31 02:14:49;;;;;;;;;19.50;18.50;;;;;7.12;54.02;101015.50;146600;572;46008;-74
2022/01/31 02:17:42;;;;;;;;;18.25;17.50;;;;;7.03;54.53;101020.03;146598;602;46016;-74
2022/01/31 02:20:35;;;;;;;;;13.75;11.25;;;;;7.06;49.94;100998.72;146602;640;46008;-78
2022/01/31 02:23:28;;;;;;;;;14.75;14.00;;;;;7.27;50.24;101009.63;146597;605;46017;-77
2022/01/31 02:26:20;;;;;;;;;20.25;18.75;;;;;7.39;50.09;101015.63;146599;576;46024;-79
2022/01/31 02:29:12;;;;;;;;;20.75;20.50;;;;;7.48;50.64;101015.38;146597;566;47012;-80
2022/01/31 02:32:04;;;;;;;;;23.25;20.75;;;;;7.48;50.56;101013.69;146600;594;46008;-83
2022/01/31 02:34:57;;;;;;;;;26.50;20.00;;;;;7.46;50.49;101011.78;146597;625;47012;-85
2022/01/31 02:37:49;;;;;;;;;23.75;22.25;;;;;7.37;51.91;101020.66;146600;605;46020;-82
2022/01/31 02:40:42;;;;;;;;;21.00;14.75;;;;;7.24;50.04;101005.16;146597;605;46016;-85
2022/01/31 02:43:36;;;;;;;;;18.00;18.00;;;;;7.21;48.99;101004.94;146601;579;46021;-77
2022/01/31 02:46:28;;;;;;;;;12.50;10.75;;;;;7.27;48.24;101002.78;146601;564;46016;-77
2022/01/31 02:49:26;;;;;;;;;17.50;15.75;;;;;7.36;50.03;101003.41;146602;566;47013;-78
2022/01/31 02:52:19;;;;;;;;;21.75;18.25;;;;;7.39;49.30;100998.47;146603;600;46016;-78
2022/01/31 02:55:12;;;;;;;;;17.50;13.50;;;;;7.37;49.94;101006.87;146600;594;46020;-78
2022/01/31 02:58:04;;;;;;;;;19.00;15.50;;;;;7.25;50.56;100995.72;146601;572;46016;-77
2022/01/31 03:00:57;;;;;;;;;22.00;21.00;;;;;7.10;50.22;100993.91;146604;625;46008;-78
2022/01/31 03:03:50;;;;;;;;;17.25;16.00;;;;;6.99;51.53;100992.25;146599;684;46010;-77
2022/01/31 03:06:49;;;;;;;;;19.25;17.75;;;;;6.85;52.67;100986.13;146605;574;46008;-78
2022/01/31 03:09:41;;;;;;;;;21.75;14.50;;;;;6.70;54.36;100992.78;146601;592;47010;-78
2022/01/31 03:12:33;;;;;;;;;31.50;25.50;;;;;6.63;52.87;101000.84;146604;650;47008;-77
2022/01/31 03:15:26;;;;;;;;;22.25;22.00;;;;;6.58;52.58;101007.38;146600;754;46012;-75
2022/01/31 03:18:18;;;;;;;;;19.75;17.25;;;;;6.56;53.73;101002.09;146605;731;46020;-77
2022/01/31 03:21:10;;;;;;;;;19.50;16.50;;;;;6.60;55.51;100990.31;146601;629;46029;-77
2022/01/31 03:24:02;;;;;;;;;20.25;16.75;;;;;6.59;54.01;100997.16;146606;615;46020;-76
2022/01/31 03:26:55;;;;;;;;;38.00;35.00;;;;;6.56;53.72;101001.19;146601;625;46016;-77
2022/01/31 03:29:47;;;;;;;;;28.25;26.25;;;;;6.51;53.63;101005.12;146601;623;46020;-77
2022/01/31 03:32:40;;;;;;;;;12.50;11.75;;;;;6.44;53.26;101004.69;146601;563;46027;-79
2022/01/31 03:35:32;;;;;;;;;15.00;10.75;;;;;6.42;53.23;101005.38;146608;580;45021;-79
2022/01/31 03:38:25;;;;;;;;;12.50;12.25;;;;;6.39;54.22;101010.31;146599;651;47012;-80
2022/01/31 03:41:19;;;;;;;;;11.25;10.25;;;;;6.36;53.88;101013.56;146604;610;46020;-78
2022/01/31 03:44:12;;;;;;;;;14.00;11.00;;;;;6.32;54.35;101011.50;146597;692;47010;-72
2022/01/31 03:47:04;;;;;;;;;15.00;12.75;;;;;6.30;54.15;101019.94;146605;658;46008;-73
2022/01/31 03:49:56;;;;;;;;;15.50;12.00;;;;;6.25;54.80;101038.50;146600;595;46010;-73
2022/01/31 03:52:51;;;;;;;;;24.50;22.75;;;;;6.24;54.09;101040.97;146605;576;46020;-77
2022/01/31 03:55:43;;;;;;;;;22.75;21.50;;;;;6.25;53.89;101046.22;146602;591;46917;-76
2022/01/31 03:58:35;;;;;;;;;26.50;26.50;;;;;6.29;53.05;101049.91;146605;564;46008;-76
2022/01/31 04:01:28;;;;;;;;;39.75;34.50;;;;;6.31;53.99;101052.62;146602;582;46010;-82
2022/01/31 04:04:20;;;;;;;;;37.25;30.50;;;;;6.29;54.02;101054.19;146607;565;46008;-82
2022/01/31 04:07:12;;;;;;;;;29.50;21.75;;;;;6.19;55.76;101050.94;146601;572;47012;-82
2022/01/31 04:10:05;;;;;;;;;37.00;34.00;;;;;6.11;54.38;101053.75;146604;629;46020;-83
2022/01/31 04:12:58;;;;;;;;;45.75;37.00;;;;;6.01;55.43;101035.03;146601;609;46017;-84
2022/01/31 04:15:50;;;;;;;;;37.00;32.00;;;;;5.99;55.18;101039.16;146604;583;46020;-76
2022/01/31 04:18:42;;;;;;;;;16.50;14.00;;;;;5.92;55.23;101039.47;146603;598;46017;-74
2022/01/31 04:21:35;;;;;;;;;21.50;18.00;;;;;5.90;54.68;101035.88;146606;600;46020;-81
2022/01/31 04:24:32;;;;;;;;;18.25;15.25;;;;;5.91;55.29;101040.22;146601;593;47010;-82
2022/01/31 04:27:28;;;;;;;;;17.00;15.75;;;;;5.95;54.26;101049.09;146604;577;46008;-77
2022/01/31 04:30:20;;;;;;;;;22.00;18.00;;;;;6.06;53.85;101043.09;146603;580;46016;-81
2022/01/31 04:33:12;;;;;;;;;12.75;11.75;;;;;6.17;53.10;101047.37;146608;569;45025;-75
2022/01/31 04:36:04;;;;;;;;;12.00;10.00;;;;;6.33;52.29;101031.34;146600;571;46016;-75
2022/01/31 04:38:57;;;;;;;;;21.00;20.00;;;;;6.51;52.66;101049.84;146602;608;46020;-75
2022/01/31 04:41:51;;;;;;;;;15.75;14.50;;;;;6.56;52.69;101056.19;146600;580;46017;-76
2022/01/31 04:44:43;;;;;;;;;27.75;25.25;;;;;6.52;52.79;101053.31;146603;628;47008;-76
2022/01/31 04:47:36;;;;;;;;;9.75;8.25;;;;;6.41;53.39;101071.44;146603;613;46016;-76
2022/01/31 04:50:28;;;;;;;;;8.00;5.75;;;;;6.30;52.72;101072.34;146607;609;46008;-76
2022/01/31 04:53:20;;;;;;;;;8.00;7.25;;;;;6.30;52.56;101071.44;146604;569;46016;-77
2022/01/31 04:56:12;;;;;;;;;12.25;12.00;;;;;6.35;52.67;101070.97;146600;659;46021;-77
2022/01/31 04:59:05;;;;;;;;;13.25;11.25;;;;;6.43;52.42;101077.59;146599;590;47010;-75
2022/01/31 05:01:57;;;;;;;;;18.50;16.00;;;;;6.54;52.00;101069.75;146603;570;46020;-75
2022/01/31 05:04:49;;;;;;;;;19.75;17.25;;;;;6.66;51.89;101071.53;146601;581;47010;-75
2022/01/31 05:07:41;;;;;;;;;10.00;8.75;;;;;6.77;50.71;101067.16;146605;654;46020;-75
2022/01/31 05:10:34;;;;;;;;;6.50;6.50;;;;;6.86;50.79;101062.66;146603;621;46010;-78
2022/01/31 05:13:27;;;;;;;;;6.00;6.00;;;;;6.94;50.41;101066.66;146605;665;46020;-77
2022/01/31 05:16:19;;;;;;;;;12.75;8.75;;;;;7.00;49.67;101055.00;146599;583;46016;-75
2022/01/31 05:19:11;;;;;;;;;6.25;5.75;;;;;7.08;49.66;101066.78;146604;581;46008;-77
2022/01/31 05:22:03;;;;;;;;;9.50;7.25;;;;;7.18;49.96;101067.50;146601;567;46010;-77
2022/01/31 05:24:56;;;;;;;;;6.75;6.25;;;;;7.29;49.43;101064.78;146602;600;46020;-76
2022/01/31 05:27:48;;;;;;;;;7.25;6.25;;;;;7.39;49.38;101074.97;146606;576;46010;-77
2022/01/31 05:30:40;;;;;;;;;10.75;5.75;;;;;7.44;48.68;101067.53;146608;563;46008;-77
2022/01/31 05:33:33;;;;;;;;;6.00;6.00;;;;;7.52;48.55;101074.13;146597;588;47012;-77
2022/01/31 05:36:25;;;;;;;;;7.50;6.25;;;;;7.58;48.06;101074.56;146606;582;46020;-78
2022/01/31 05:39:17;;;;;;;;;7.00;6.25;;;;;7.65;47.95;101092.22;146602;649;46016;-76
2022/01/31 05:42:10;;;;;;;;;7.25;7.00;;;;;7.67;47.50;101075.19;146606;593;45026;-77
2022/01/31 05:45:02;;;;;;;;;9.50;8.00;;;;;7.72;47.62;101068.63;146599;590;47016;-77
2022/01/31 05:47:54;;;;;;;;;11.25;9.00;;;;;7.78;48.13;101079.38;146607;602;46021;-80
2022/01/31 05:50:46;;;;;;;;;8.75;8.50;;;;;7.80;47.60;101075.22;146605;605;46016;-79
2022/01/31 05:53:38;;;;;;;;;6.25;5.00;;;;;7.84;47.39;101078.91;146603;599;46008;-83
2022/01/31 05:56:30;;;;;;;;;6.00;6.00;;;;;7.89;47.33;101087.84;146602;593;46017;-73
2022/01/31 05:59:22;;;;;;;;;5.50;5.00;;;;;7.96;46.92;101084.00;146606;592;46008;-76
2022/01/31 06:02:15;;;;;;;;;7.75;6.75;;;;;7.98;47.28;101080.72;146603;577;46012;-80
2022/01/31 06:05:07;;;;;;;;;10.50;8.00;;;;;8.03;47.04;101086.19;146602;607;47008;-75
2022/01/31 06:08:00;;;;;;;;;7.25;7.25;;;;;8.07;47.11;101090.78;146601;599;46016;-75
2022/01/31 06:10:53;;;;;;;;;10.00;9.25;;;;;8.08;46.96;101095.16;146606;596;46020;-75
2022/01/31 06:13:47;;;;;;;;;11.50;10.00;;;;;8.30;47.25;101100.06;146605;590;46011;-86
2022/01/31 06:16:39;;;;;;;;;11.50;9.25;;;;;8.87;46.58;101115.00;146606;563;46020;-76
2022/01/31 06:19:31;;;;;;;;;16.25;15.50;;;;;9.56;45.95;101115.84;146600;612;46016;-71
2022/01/31 06:22:24;;;;;;;;;10.00;8.75;;;;;10.35;44.39;101114.59;146605;564;46021;-72
2022/01/31 06:25:16;;;;;;;;;15.75;12.00;;;;;11.19;43.21;101103.78;146600;621;46016;-71
2022/01/31 06:28:09;;;;;;;;;18.25;16.00;;;;;12.10;42.47;101113.81;146604;615;46020;-71
2022/01/31 06:31:01;;;;;;;;;24.75;19.00;;;;;12.93;41.60;101119.69;146601;565;46016;-72
2022/01/31 06:33:53;;;;;;;;;28.50;27.00;;;;;13.74;39.74;101124.31;146603;734;47008;-72
2022/01/31 06:36:45;;;;;;;;;25.00;24.25;;;;;14.41;37.93;101123.72;146602;585;46016;-73
2022/01/31 06:39:38;;;;;;;;;23.75;21.50;;;;;14.68;37.85;101132.72;146605;641;46020;-71
2022/01/31 06:42:30;;;;;;;;;19.00;16.50;;;;;14.78;38.72;101121.84;146599;564;46017;-72
2022/01/31 06:45:22;;;;;;;;;19.50;17.00;;;;;15.01;38.20;101125.37;146605;618;47008;-72
2022/01/31 06:48:14;;;;;;;;;21.50;16.50;;;;;15.20;37.11;101127.00;146602;654;46017;-72
2022/01/31 06:51:07;;;;;;;;;13.50;12.75;;;;;15.34;37.94;101121.41;146605;607;46008;-72
2022/01/31 06:54:00;;;;;;;;;20.50;15.50;;;;;15.53;38.17;101126.47;146600;653;47010;-72
2022/01/31 06:56:52;;;;;;;;;21.50;18.25;;;;;15.83;36.41;101107.56;146601;633;46012;-72
2022/01/31 06:59:45;;;;;;;;;15.25;13.25;;;;;16.05;37.99;101114.44;146599;599;47010;-73
2022/01/31 07:02:37;;;;;;;;;29.00;25.00;;;;;16.39;35.41;101117.38;146604;609;46020;-72
2022/01/31 07:05:30;;;;;;;;;26.50;21.00;;;;;16.45;36.42;101110.56;146604;644;46010;-72
2022/01/31 07:08:22;;;;;;;;;17.75;15.50;;;;;16.23;35.31;101115.09;146605;571;46008;-73
2022/01/31 07:11:20;;;;;;;;;19.25;16.25;;;;;15.98;37.06;101107.19;146601;603;46017;-77
2022/01/31 07:17:30;;;;;;;;;24.75;23.75;;;;;15.98;36.96;101117.66;146603;570;46010;-75
2022/01/31 07:20:28;;;;;;;;;18.00;18.00;;;;;16.06;36.91;101104.03;146603;564;46020;-77
2022/01/31 07:23:27;;;;;;;;;18.50;17.00;;;;;16.09;37.21;101105.88;146600;581;46016;-75
2022/01/31 07:26:20;;;;;;;;;18.00;18.00;;;;;16.06;36.12;101106.66;146605;607;47008;-76
2022/01/31 07:29:12;;;;;;;;;23.25;19.25;;;;;15.94;35.99;101095.75;146601;659;46016;-74
2022/01/31 07:32:05;;;;;;;;;22.50;18.00;;;;;15.77;37.63;101089.94;146603;563;46020;-73
2022/01/31 07:34:58;;;;;;;;;24.25;21.75;;;;;15.72;36.13;101090.59;146601;579;46017;-72
2022/01/31 07:37:51;;;;;;;;;21.25;18.75;;;;;15.67;37.25;101091.31;146604;569;46020;-74
2022/01/31 07:40:43;;;;;;;;;17.50;17.50;;;;;15.65;38.41;101079.00;146602;618;46017;-72
2022/01/31 07:43:38;;;;;;;;;25.75;22.75;;;;;15.74;37.10;101076.75;146605;609;46020;-73
2022/01/31 07:46:30;;;;;;;;;20.75;18.50;;;;;15.81;37.29;101073.50;146603;641;46016;-73
2022/01/31 07:49:23;;;;;;;;;17.75;14.75;;;;;15.91;38.65;101083.44;146603;577;46008;-73
2022/01/31 07:52:15;;;;;;;;;32.00;27.75;;;;;16.06;36.91;101077.00;146601;590;46016;-71
2022/01/31 07:55:08;;;;;;;;;29.50;24.50;;;;;16.11;34.38;101071.09;146602;606;46020;-71
2022/01/31 07:58:00;;;;;;;;;21.00;19.00;;;;;15.98;34.86;101084.59;146599;570;46012;-71
2022/01/31 08:00:52;;;;;;;;;16.50;15.75;;;;;15.76;35.45;101077.66;146603;569;47020;-71
2022/01/31 08:03:45;;;;;;;;;32.00;30.00;;;;;15.59;35.35;101074.44;146600;616;47012;-71
2022/01/31 08:06:38;;;;;;;;;17.00;13.00;;;;;15.42;34.67;101072.91;146602;563;46008;-70
2022/01/31 08:09:30;;;;;;;;;12.75;11.75;;;;;15.26;36.02;101061.00;146600;699;46017;-71
2022/01/31 08:12:24;;;;;;;;;12.25;11.00;;;;;15.20;35.82;101053.84;146606;577;46008;-70
2022/01/31 08:15:24;;;;;;;;;15.75;14.25;;;;;15.23;36.34;101053.03;146601;584;46016;-70
2022/01/31 08:18:17;;;;;;;;;13.50;11.50;;;;;15.39;36.08;101059.72;146603;665;46020;-71
2022/01/31 08:21:10;;;;;;;;;10.75;9.75;;;;;15.47;34.28;101046.13;146604;638;46016;-73
2022/01/31 08:24:03;;;;;;;;;10.25;10.00;;;;;15.43;32.20;101039.00;146606;566;46008;-71
2022/01/31 08:26:55;;;;;;;;;13.25;13.00;;;;;15.28;33.50;101054.13;146601;687;46016;-70
2022/01/31 08:29:47;;;;;;;;;13.00;11.00;;;;;15.10;33.83;101056.03;146603;699;46008;-72
2022/01/31 08:32:57;;;;;;;;;12.75;12.50;;;;;15.00;34.91;101052.19;146603;592;46010;-71
2022/01/31 08:35:50;;;;;;;;;15.50;14.25;;;;;14.96;34.73;101051.19;146604;594;46020;-70
2022/01/31 08:38:45;;;;;;;;;17.25;15.00;;;;;14.95;34.43;101044.19;146601;584;46016;-69
2022/01/31 08:41:37;;;;;;;;;14.75;13.00;;;;;14.92;34.20;101045.75;146604;613;47021;-70
2022/01/31 08:44:29;;;;;;;;;11.75;10.75;;;;;14.86;35.04;101036.00;146599;641;47010;-69
2022/01/31 08:47:22;;;;;;;;;19.25;17.00;;;;;14.85;35.60;101041.16;146603;564;45021;-70
2022/01/31 08:50:15;;;;;;;;;12.75;12.75;;;;;14.92;34.80;101041.47;146602;656;46016;-70
2022/01/31 08:53:07;;;;;;;;;16.50;16.00;;;;;15.01;34.55;101049.66;146603;591;46020;-70
2022/01/31 08:56:03;;;;;;;;;7.75;6.75;;;;;15.05;34.93;101050.66;146601;601;46016;-70
2022/01/31 08:58:56;;;;;;;;;12.75;11.00;;;;;15.08;35.12;101056.00;146605;571;46008;-70
2022/01/31 09:02:05;;;;;;;;;15.50;11.00;;;;;15.13;33.46;101059.66;146603;570;46010;-69
2022/01/31 09:04:57;;;;;;;;;10.00;8.25;;;;;15.15;33.14;101054.50;146603;692;46020;-70
2022/01/31 09:07:49;;;;;;;;;8.50;7.50;;;;;15.13;34.15;101045.69;146601;564;47010;-69
2022/01/31 09:10:43;;;;;;;;;12.25;10.25;;;;;15.08;34.33;101039.41;146604;580;46021;-71
2022/01/31 09:13:36;;;;;;;;;12.75;12.75;;;;;15.02;34.10;101035.75;146600;649;47010;-69
2022/01/31 09:16:28;;;;;;;;;14.50;11.75;;;;;15.01;34.37;101036.59;146603;574;46012;-70
2022/01/31 09:19:20;;;;;;;;;12.00;10.25;;;;;15.06;34.93;101035.88;146603;581;46012;-72
2022/01/31 09:22:13;;;;;;;;;10.75;9.75;;;;;15.15;34.52;101041.44;146606;676;46020;-71
2022/01/31 09:25:05;;;;;;;;;8.75;8.75;;;;;15.22;32.67;101038.22;146604;582;46016;-69
2022/01/31 09:27:57;;;;;;;;;12.75;12.75;;;;;15.25;33.12;101043.56;146603;628;46999;-70
2022/01/31 09:30:52;;;;;;;;;12.75;11.75;;;;;15.29;33.04;101029.75;146603;576;46012;-70
2022/01/31 09:33:44;;;;;;;;;14.00;12.75;;;;;15.38;33.73;101030.09;146606;565;47008;-70
2022/01/31 09:36:36;;;;;;;;;17.00;14.25;;;;;15.47;34.39;101019.09;146601;611;47010;-71
2022/01/31 09:39:30;;;;;;;;;15.25;12.75;;;;;15.57;33.52;101015.09;146604;610;46021;-70
2022/01/31 09:42:32;;;;;;;;;14.75;12.75;;;;;15.67;33.53;101004.19;146604;584;46010;-70
2022/01/31 09:45:37;;;;;;;;;13.50;12.25;;;;;15.76;34.05;101007.09;146604;609;46008;-70
2022/01/31 09:48:39;;;;;;;;;13.00;10.50;;;;;15.85;33.61;101004.78;146597;632;46017;-70
2022/01/31 09:51:31;;;;;;;;;17.25;14.00;;;;;15.89;33.36;101005.81;146601;575;46020;-70
2022/01/31 09:54:25;;;;;;;;;10.00;9.50;;;;;15.96;34.26;100994.69;146598;665;46016;-71
2022/01/31 09:57:17;;;;;;;;;11.00;10.00;;;;;15.99;32.81;100983.47;146599;569;46020;-71
2022/01/31 10:00:54;;;;;;;;;9.50;8.00;;;;;15.96;33.68;100976.41;146598;617;46016;-71
2022/01/31 10:03:58;;;;;;;;;10.75;9.00;;;;;15.90;33.85;100978.81;146599;595;47008;-71
2022/01/31 10:06:53;;;;;;;;;9.25;7.75;;;;;15.83;31.73;100976.84;146598;650;46016;-70
2022/01/31 10:09:46;;;;;;;;;13.25;10.25;;;;;15.77;33.29;100974.00;146600;716;46008;-69
2022/01/31 10:19:17;;;;;;;;;14.00;12.75;;;;;15.68;33.85;100971.97;146596;578;46016;-71
2022/01/31 10:22:12;;;;;;;;;11.75;10.25;;;;;15.77;34.24;100958.31;146601;573;46020;-71
2022/01/31 10:25:10;;;;;;;;;12.25;11.00;;;;;15.96;34.18;100951.97;146597;597;46017;-71
2022/01/31 10:28:02;;;;;;;;;12.25;8.00;;;;;16.23;33.39;100949.34;146601;574;46020;-71
2022/01/31 10:30:54;;;;;;;;;14.75;12.25;;;;;16.51;34.31;100951.09;146599;576;46013;-72
2022/01/31 10:34:19;;;;;;;;;10.75;9.25;;;;;15.83;35.46;100768.53;146601;593;46021;-71
2022/01/31 10:37:16;;;;;;;;;13.00;10.75;;;;;17.07;32.86;100934.50;146596;585;47010;-71
2022/01/31 10:53:05;;;;;;;;;12.00;10.75;;;;;17.46;32.48;100917.19;146609;581;46009;-72
2022/01/31 10:55:59;;;;;;;;;14.00;12.25;;;;;17.44;31.81;100914.50;146606;616;46030;-71
2022/01/31 10:59:13;;;;;;;;;10.25;10.00;;;;;17.44;33.87;100904.00;146607;569;46012;-71
2022/01/31 11:02:09;;;;;;;;;13.50;10.25;;;;;17.47;31.37;100898.84;146604;578;46017;-74
2022/01/31 11:05:02;;;;;;;;;14.50;12.25;;;;;17.48;32.25;100889.28;146606;672;46020;-73
2022/01/31 11:07:54;;;;;;;;;9.75;8.75;;;;;17.50;31.67;100882.31;146597;597;47915;-72
2022/01/31 11:10:47;;;;;;;;;10.25;10.25;;;;;17.54;31.08;100866.72;146606;678;46024;-72
2022/01/31 11:13:41;;;;;;;;;11.25;10.50;;;;;17.65;31.95;100866.09;146603;581;46010;-72
2022/01/31 11:16:34;;;;;;;;;23.50;20.50;;;;;17.79;31.36;100856.88;146604;591;47008;-73
2022/01/31 11:19:33;;;;;;;;;15.00;13.00;;;;;17.98;30.19;100859.06;146603;569;46016;-72
2022/01/31 11:22:31;;;;;;;;;15.50;12.25;;;;;18.15;30.28;100856.81;146607;610;46008;-73
2022/01/31 11:25:28;;;;;;;;;16.50;14.50;;;;;18.22;30.50;100849.97;146602;736;47916;-73
2022/01/31 11:28:22;;;;;;;;;11.50;10.25;;;;;18.29;30.83;100838.78;146609;577;46008;-73
2022/01/31 11:31:15;;;;;;;;;10.00;10.00;;;;;18.44;30.88;100830.31;146606;588;46915;-72
2022/01/31 11:34:08;;;;;;;;;13.25;12.00;;;;;18.57;30.83;100819.22;146607;666;46020;-72
2022/01/31 11:37:01;;;;;;;;;9.00;9.00;;;;;18.73;30.61;100814.31;146604;606;46035;-72
2022/01/31 11:40:00;;;;;;;;;9.00;8.75;;;;;18.89;30.25;100796.22;146609;610;46020;-72
2022/01/31 11:42:54;;;;;;;;;10.75;8.00;;;;;18.96;29.43;100785.84;146604;611;46915;-72
2022/01/31 11:45:48;;;;;;;;;12.00;9.00;;;;;18.96;30.30;100775.31;146604;565;46021;-69
2022/01/31 11:48:40;;;;;;;;;12.00;12.00;;;;;19.07;30.26;100777.28;146597;574;46016;-74
2022/01/31 11:51:32;;;;;;;;;9.00;8.00;;;;;19.13;28.71;100760.75;146601;664;47008;-71
2022/01/31 11:54:28;;;;;;;;;10.25;8.50;;;;;19.07;30.02;100753.62;146598;572;46017;-73
2022/01/31 11:57:32;;;;;;;;;9.25;8.50;;;;;19.01;31.16;100745.66;146603;633;46020;-72
2022/01/31 12:00:27;;;;;;;;;8.50;8.50;;;;;19.00;29.23;100735.09;146598;605;46027;-73
2022/01/31 12:03:21;;;;;;;;;12.75;11.00;;;;;18.85;28.29;100726.09;146603;582;46020;-72
2022/01/31 12:06:14;;;;;;;;;13.00;11.25;;;;;18.78;29.54;100726.81;146596;585;46016;-71
2022/01/31 12:09:17;;;;;;;;;14.25;11.00;;;;;18.86;30.83;100722.59;146601;617;46008;-71
2022/01/31 12:12:48;;;;;;;;;9.25;8.25;;;;;19.07;31.14;100726.47;146598;570;46016;-71
2022/01/31 12:19:29;;;;;;;;;13.25;10.75;;;;;19.11;28.70;100716.03;146597;569;46012;-70
2022/01/31 12:23:00;;;;;;;;;14.00;14.00;;;;;18.17;30.75;100571.69;146600;661;46021;-71
2022/01/31 12:25:52;;;;;;;;;14.50;13.00;;;;;18.77;28.47;100706.69;146597;707;47010;-72
2022/01/31 12:28:48;;;;;;;;;12.00;12.00;;;;;18.65;28.75;100707.31;146601;618;46008;-71
2022/01/31 12:31:58;;;;;;;;;12.50;9.75;;;;;18.55;30.40;100705.37;146595;570;46016;-72
2022/01/31 12:35:05;;;;;;;;;10.75;8.25;;;;;18.39;30.24;100706.84;146601;594;46020;-72
2022/01/31 12:37:57;;;;;;;;;9.50;8.50;;;;;18.28;28.87;100695.22;146597;592;46017;-72
2022/01/31 12:40:57;;;;;;;;;11.50;10.00;;;;;18.27;28.54;100684.72;146602;566;46008;-72
2022/01/31 12:43:51;;;;;;;;;9.75;8.00;;;;;18.22;29.06;100682.91;146597;581;46016;-72
2022/01/31 12:46:52;;;;;;;;;8.75;7.75;;;;;18.06;33.72;100672.94;146601;625;46021;-71
2022/01/31 12:49:45;;;;;;;;;10.00;8.50;;;;;17.87;31.49;100666.44;146605;570;46010;-72
2022/01/31 12:52:38;;;;;;;;;13.25;12.25;;;;;17.78;32.72;100661.00;146609;571;46008;-72
2022/01/31 12:55:30;;;;;;;;;5.75;5.00;;;;;17.77;32.57;100651.38;146604;563;46016;-71
2022/01/31 12:58:22;;;;;;;;;9.50;9.50;;;;;17.73;33.06;100652.12;146606;634;46020;-71
2022/01/31 13:01:29;;;;;;;;;12.00;12.00;;;;;17.60;33.34;100644.84;146603;617;46016;-71
2022/01/31 13:04:25;;;;;;;;;8.75;8.50;;;;;17.58;32.99;100638.69;146608;605;46020;-70
2022/01/31 13:07:18;;;;;;;;;10.50;9.50;;;;;17.47;31.15;100639.31;146603;612;46916;-70
2022/01/31 13:10:15;;;;;;;;;8.75;8.25;;;;;16.98;32.36;100632.12;146603;585;47020;-71
2022/01/31 13:13:08;;;;;;;;;14.50;12.00;;;;;16.67;32.79;100631.34;146603;569;46016;-71
2022/01/31 13:16:11;;;;;;;;;10.25;9.25;;;;;16.63;35.01;100633.00;146604;631;47008;-71
2022/01/31 13:19:03;;;;;;;;;9.50;8.50;;;;;16.71;34.05;100627.06;146599;601;47010;-72
2022/01/31 13:21:57;;;;;;;;;10.25;7.50;;;;;16.89;34.24;100618.78;146606;577;46020;-72
2022/01/31 13:24:53;;;;;;;;;7.75;7.75;;;;;17.03;31.76;100625.22;146600;569;47010;-71
2022/01/31 13:27:48;;;;;;;;;12.50;10.00;;;;;16.95;32.05;100616.31;146603;648;46020;-71
2022/01/31 13:30:40;;;;;;;;;11.25;10.75;;;;;16.77;32.07;100617.63;146602;578;47010;-72
2022/01/31 13:33:32;;;;;;;;;26.75;22.75;;;;;16.50;32.49;100606.44;146604;646;46020;-72
2022/01/31 13:36:24;;;;;;;;;23.50;22.25;;;;;16.19;32.24;100603.03;146599;573;46017;-70
2022/01/31 13:39:25;;;;;;;;;19.75;17.75;;;;;15.89;33.51;100604.00;146604;563;46020;-72
2022/01/31 13:42:33;;;;;;;;;11.25;10.00;;;;;15.75;33.77;100591.38;146603;598;46010;-72
2022/01/31 13:45:37;;;;;;;;;17.75;17.00;;;;;15.52;33.11;100588.97;146602;648;46021;-73
2022/01/31 13:48:58;;;;;;;;;10.50;9.00;;;;;15.40;33.17;100586.00;146598;655;46010;-72